UACP 251400Z 24006MPS CAVOK M07/M10 Q1032 NOSIG RMK QFE761/1015
QNH:(hPa/inHg/mmHg)1032 / 30.47 / 774
QFE:(hPa/inHg/mmHg)1015 / 29.97 / 761
Temperature-7
Dew Point-10
Visibility> 10000
WeatherCAVOK
Cloud Cover
Transition Altitude10000 ft.
Transition LevelFL110
SQUAWK